sensor_id;sensor_type;location;lat;lon;timestamp;temperature;humidity
5675;DHT22;2860;54.284;10.158;2023-02-15T00:01:37;-0.60;99.90
5675;DHT22;2860;54.284;10.158;2023-02-15T00:04:04;-0.60;99.90
5675;DHT22;2860;54.284;10.158;2023-02-15T00:06:30;-0.60;99.90
5675;DHT22;2860;54.284;10.158;2023-02-15T00:08:56;-0.60;99.90
5675;DHT22;2860;54.284;10.158;2023-02-15T00:11:22;-0.60;99.90
5675;DHT22;2860;54.284;10.158;2023-02-15T00:14:20;-0.60;99.90
5675;DHT22;2860;54.284;10.158;2023-02-15T00:16:46;-0.60;99.90
5675;DHT22;2860;54.284;10.158;2023-02-15T00:19:14;-0.60;99.90
5675;DHT22;2860;54.284;10.158;2023-02-15T00:21:40;-0.60;99.90
5675;DHT22;2860;54.284;10.158;2023-02-15T00:24:07;-0.60;99.90
5675;DHT22;2860;54.284;10.158;2023-02-15T00:26:34;-0.60;99.90
5675;DHT22;2860;54.284;10.158;2023-02-15T00:29:00;-0.70;99.90
5675;DHT22;2860;54.284;10.158;2023-02-15T00:31:27;-0.70;99.90
5675;DHT22;2860;54.284;10.158;2023-02-15T00:33:53;-0.70;99.90
5675;DHT22;2860;54.284;10.158;2023-02-15T00:36:18;-0.70;99.90
5675;DHT22;2860;54.284;10.158;2023-02-15T00:38:44;-0.70;99.90
5675;DHT22;2860;54.284;10.158;2023-02-15T00:41:10;-0.70;99.90
5675;DHT22;2860;54.284;10.158;2023-02-15T00:43:36;-0.80;99.90
5675;DHT22;2860;54.284;10.158;2023-02-15T00:46:03;-0.80;99.90
5675;DHT22;2860;54.284;10.158;2023-02-15T00:48:29;-0.80;99.90
5675;DHT22;2860;54.284;10.158;2023-02-15T00:50:57;-0.80;99.90
5675;DHT22;2860;54.284;10.158;2023-02-15T00:53:23;-0.80;99.90
5675;DHT22;2860;54.284;10.158;2023-02-15T00:55:49;-0.80;99.90
5675;DHT22;2860;54.284;10.158;2023-02-15T00:58:15;-0.80;99.90
5675;DHT22;2860;54.284;10.158;2023-02-15T01:00:42;-0.70;99.90
5675;DHT22;2860;54.284;10.158;2023-02-15T01:03:08;-0.70;99.90
5675;DHT22;2860;54.284;10.158;2023-02-15T01:05:34;-0.70;99.90
5675;DHT22;2860;54.284;10.158;2023-02-15T01:08:00;-0.60;99.90
5675;DHT22;2860;54.284;10.158;2023-02-15T01:10:26;-0.60;99.90
5675;DHT22;2860;54.284;10.158;2023-02-15T01:12:53;-0.50;99.90
5675;DHT22;2860;54.284;10.158;2023-02-15T01:15:19;-0.50;99.90
5675;DHT22;2860;54.284;10.158;2023-02-15T01:17:45;-0.50;99.90
5675;DHT22;2860;54.284;10.158;2023-02-15T01:20:17;-0.40;99.90
5675;DHT22;2860;54.284;10.158;2023-02-15T01:22:42;-0.30;99.90
5675;DHT22;2860;54.284;10.158;2023-02-15T01:25:08;-0.30;99.90
5675;DHT22;2860;54.284;10.158;2023-02-15T01:27:33;-0.20;99.90
5675;DHT22;2860;54.284;10.158;2023-02-15T01:29:59;-0.10;99.90
5675;DHT22;2860;54.284;10.158;2023-02-15T01:32:24;-0.10;99.90
5675;DHT22;2860;54.284;10.158;2023-02-15T01:34:50;0.00;99.90
5675;DHT22;2860;54.284;10.158;2023-02-15T01:37:15;0.00;99.90
5675;DHT22;2860;54.284;10.158;2023-02-15T01:39:41;0.00;99.90
5675;DHT22;2860;54.284;10.158;2023-02-15T01:42:10;0.10;99.90
5675;DHT22;2860;54.284;10.158;2023-02-15T01:44:46;0.10;99.90
5675;DHT22;2860;54.284;10.158;2023-02-15T01:47:16;0.10;99.90
5675;DHT22;2860;54.284;10.158;2023-02-15T01:49:44;0.10;99.90
5675;DHT22;2860;54.284;10.158;2023-02-15T01:52:14;0.10;99.90
5675;DHT22;2860;54.284;10.158;2023-02-15T01:54:42;0.10;99.90
5675;DHT22;2860;54.284;10.158;2023-02-15T01:57:16;0.20;99.90
5675;DHT22;2860;54.284;10.158;2023-02-15T01:59:46;0.20;99.90
5675;DHT22;2860;54.284;10.158;2023-02-15T02:02:13;0.20;99.90
5675;DHT22;2860;54.284;10.158;2023-02-15T02:04:45;0.20;99.90
5675;DHT22;2860;54.284;10.158;2023-02-15T02:07:15;0.20;99.90
5675;DHT22;2860;54.284;10.158;2023-02-15T02:09:41;0.30;99.90
5675;DHT22;2860;54.284;10.158;2023-02-15T02:12:08;0.30;99.90
5675;DHT22;2860;54.284;10.158;2023-02-15T02:14:34;0.40;99.90
5675;DHT22;2860;54.284;10.158;2023-02-15T02:28:31;0.50;99.90
5675;DHT22;2860;54.284;10.158;2023-02-15T02:31:23;0.50;99.90
5675;DHT22;2860;54.284;10.158;2023-02-15T02:33:57;0.60;99.90
5675;DHT22;2860;54.284;10.158;2023-02-15T02:39:29;0.60;99.90
5675;DHT22;2860;54.284;10.158;2023-02-15T02:42:19;0.60;99.90
5675;DHT22;2860;54.284;10.158;2023-02-15T02:45:13;0.60;99.90
5675;DHT22;2860;54.284;10.158;2023-02-15T02:47:47;0.60;99.90
5675;DHT22;2860;54.284;10.158;2023-02-15T02:50:17;0.60;99.90
5675;DHT22;2860;54.284;10.158;2023-02-15T02:52:46;0.60;99.90
5675;DHT22;2860;54.284;10.158;2023-02-15T02:55:35;0.70;99.90
5675;DHT22;2860;54.284;10.158;2023-02-15T02:58:38;0.70;99.90
5675;DHT22;2860;54.284;10.158;2023-02-15T03:03:40;0.60;99.90
5675;DHT22;2860;54.284;10.158;2023-02-15T03:06:16;0.60;99.90
5675;DHT22;2860;54.284;10.158;2023-02-15T03:08:48;0.60;99.90
5675;DHT22;2860;54.284;10.158;2023-02-15T03:11:16;0.60;99.90
5675;DHT22;2860;54.284;10.158;2023-02-15T03:13:43;0.60;99.90
5675;DHT22;2860;54.284;10.158;2023-02-15T03:16:10;0.60;99.90
5675;DHT22;2860;54.284;10.158;2023-02-15T03:19:05;0.50;99.90
5675;DHT22;2860;54.284;10.158;2023-02-15T03:21:45;0.50;99.90
5675;DHT22;2860;54.284;10.158;2023-02-15T03:24:26;0.50;99.90
5675;DHT22;2860;54.284;10.158;2023-02-15T03:26:54;0.50;99.90
5675;DHT22;2860;54.284;10.158;2023-02-15T03:29:24;0.40;99.90
5675;DHT22;2860;54.284;10.158;2023-02-15T03:31:56;0.40;99.90
5675;DHT22;2860;54.284;10.158;2023-02-15T03:34:23;0.30;99.90
5675;DHT22;2860;54.284;10.158;2023-02-15T03:39:53;0.30;99.90
5675;DHT22;2860;54.284;10.158;2023-02-15T03:42:32;0.20;99.90
5675;DHT22;2860;54.284;10.158;2023-02-15T03:45:03;0.20;99.90
5675;DHT22;2860;54.284;10.158;2023-02-15T03:47:42;0.20;99.90
5675;DHT22;2860;54.284;10.158;2023-02-15T03:50:21;0.10;99.90
5675;DHT22;2860;54.284;10.158;2023-02-15T03:53:10;0.10;99.90
5675;DHT22;2860;54.284;10.158;2023-02-15T03:55:37;0.10;99.90
5675;DHT22;2860;54.284;10.158;2023-02-15T03:58:03;0.10;99.90
5675;DHT22;2860;54.284;10.158;2023-02-15T04:00:55;0.10;99.90
5675;DHT22;2860;54.284;10.158;2023-02-15T04:03:45;0.10;99.90
5675;DHT22;2860;54.284;10.158;2023-02-15T04:06:14;0.10;99.90
5675;DHT22;2860;54.284;10.158;2023-02-15T04:08:40;0.10;99.90
5675;DHT22;2860;54.284;10.158;2023-02-15T04:11:24;0.10;99.90
5675;DHT22;2860;54.284;10.158;2023-02-15T04:13:50;0.10;99.90
5675;DHT22;2860;54.284;10.158;2023-02-15T04:16:22;0.10;99.90
5675;DHT22;2860;54.284;10.158;2023-02-15T04:18:48;0.10;99.90
5675;DHT22;2860;54.284;10.158;2023-02-15T04:21:32;0.10;99.90
5675;DHT22;2860;54.284;10.158;2023-02-15T04:24:17;0.10;99.90
5675;DHT22;2860;54.284;10.158;2023-02-15T04:27:02;0.10;99.90
5675;DHT22;2860;54.284;10.158;2023-02-15T04:29:28;0.10;99.90
5675;DHT22;2860;54.284;10.158;2023-02-15T04:31:56;0.10;99.90
5675;DHT22;2860;54.284;10.158;2023-02-15T04:34:21;0.20;99.90
5675;DHT22;2860;54.284;10.158;2023-02-15T04:36:47;0.20;99.90
5675;DHT22;2860;54.284;10.158;2023-02-15T04:39:14;0.20;99.90
5675;DHT22;2860;54.284;10.158;2023-02-15T04:41:40;0.20;99.90
5675;DHT22;2860;54.284;10.158;2023-02-15T04:44:06;0.20;99.90
5675;DHT22;2860;54.284;10.158;2023-02-15T04:46:31;0.20;99.90
5675;DHT22;2860;54.284;10.158;2023-02-15T04:48:58;0.20;99.90
5675;DHT22;2860;54.284;10.158;2023-02-15T04:51:23;0.10;99.90
5675;DHT22;2860;54.284;10.158;2023-02-15T04:53:49;0.20;99.90
5675;DHT22;2860;54.284;10.158;2023-02-15T04:56:18;0.10;99.90
5675;DHT22;2860;54.284;10.158;2023-02-15T04:58:43;0.10;99.90
5675;DHT22;2860;54.284;10.158;2023-02-15T05:01:09;0.10;99.90
5675;DHT22;2860;54.284;10.158;2023-02-15T05:03:35;0.10;99.90
5675;DHT22;2860;54.284;10.158;2023-02-15T05:06:01;0.10;99.90
5675;DHT22;2860;54.284;10.158;2023-02-15T05:08:26;0.10;99.90
5675;DHT22;2860;54.284;10.158;2023-02-15T05:10:51;0.10;99.90
5675;DHT22;2860;54.284;10.158;2023-02-15T05:13:17;0.10;99.90
5675;DHT22;2860;54.284;10.158;2023-02-15T05:15:47;0.10;99.90
5675;DHT22;2860;54.284;10.158;2023-02-15T05:18:13;0.10;99.90
5675;DHT22;2860;54.284;10.158;2023-02-15T05:20:39;0.10;99.90
5675;DHT22;2860;54.284;10.158;2023-02-15T05:23:04;0.10;99.90
5675;DHT22;2860;54.284;10.158;2023-02-15T05:25:30;0.10;99.90
5675;DHT22;2860;54.284;10.158;2023-02-15T05:28:14;0.10;99.90
5675;DHT22;2860;54.284;10.158;2023-02-15T05:30:51;0.10;99.90
5675;DHT22;2860;54.284;10.158;2023-02-15T05:33:22;0.10;99.90
5675;DHT22;2860;54.284;10.158;2023-02-15T05:35:47;0.10;99.90
5675;DHT22;2860;54.284;10.158;2023-02-15T05:38:13;0.10;99.90
5675;DHT22;2860;54.284;10.158;2023-02-15T05:40:38;0.10;99.90
5675;DHT22;2860;54.284;10.158;2023-02-15T05:43:04;0.10;99.90
5675;DHT22;2860;54.284;10.158;2023-02-15T05:45:29;0.10;99.90
5675;DHT22;2860;54.284;10.158;2023-02-15T05:47:55;0.10;99.90
5675;DHT22;2860;54.284;10.158;2023-02-15T05:50:23;0.10;99.90
5675;DHT22;2860;54.284;10.158;2023-02-15T05:52:48;0.20;99.90
5675;DHT22;2860;54.284;10.158;2023-02-15T05:55:14;0.20;99.90
5675;DHT22;2860;54.284;10.158;2023-02-15T05:57:40;0.20;99.90
5675;DHT22;2860;54.284;10.158;2023-02-15T06:00:06;0.20;99.90
5675;DHT22;2860;54.284;10.158;2023-02-15T06:02:35;0.10;99.90
5675;DHT22;2860;54.284;10.158;2023-02-15T06:05:00;0.20;99.90
5675;DHT22;2860;54.284;10.158;2023-02-15T06:07:26;0.20;99.90
5675;DHT22;2860;54.284;10.158;2023-02-15T06:09:52;0.20;99.90
5675;DHT22;2860;54.284;10.158;2023-02-15T06:12:17;0.20;99.90
5675;DHT22;2860;54.284;10.158;2023-02-15T06:14:43;0.20;99.90
5675;DHT22;2860;54.284;10.158;2023-02-15T06:17:08;0.10;99.90
5675;DHT22;2860;54.284;10.158;2023-02-15T06:19:34;0.20;99.90
5675;DHT22;2860;54.284;10.158;2023-02-15T06:21:59;0.10;99.90
5675;DHT22;2860;54.284;10.158;2023-02-15T06:24:25;0.10;99.90
5675;DHT22;2860;54.284;10.158;2023-02-15T06:26:50;0.10;99.90
5675;DHT22;2860;54.284;10.158;2023-02-15T06:29:16;0.10;99.90
5675;DHT22;2860;54.284;10.158;2023-02-15T06:31:41;0.10;99.90
5675;DHT22;2860;54.284;10.158;2023-02-15T06:34:08;0.20;99.90
5675;DHT22;2860;54.284;10.158;2023-02-15T06:36:33;0.20;99.90
5675;DHT22;2860;54.284;10.158;2023-02-15T06:38:59;0.20;99.90
5675;DHT22;2860;54.284;10.158;2023-02-15T06:41:24;0.20;99.90
5675;DHT22;2860;54.284;10.158;2023-02-15T06:43:50;0.20;99.90
5675;DHT22;2860;54.284;10.158;2023-02-15T06:46:16;0.20;99.90
5675;DHT22;2860;54.284;10.158;2023-02-15T06:48:42;0.20;99.90
5675;DHT22;2860;54.284;10.158;2023-02-15T06:51:07;0.20;99.90
5675;DHT22;2860;54.284;10.158;2023-02-15T06:53:33;0.20;99.90
5675;DHT22;2860;54.284;10.158;2023-02-15T06:56:06;0.10;99.90
5675;DHT22;2860;54.284;10.158;2023-02-15T06:58:41;0.10;99.90
5675;DHT22;2860;54.284;10.158;2023-02-15T07:01:08;0.10;99.90
5675;DHT22;2860;54.284;10.158;2023-02-15T07:03:34;0.10;99.90
5675;DHT22;2860;54.284;10.158;2023-02-15T07:06:02;0.10;99.90
5675;DHT22;2860;54.284;10.158;2023-02-15T07:08:28;0.20;99.90
5675;DHT22;2860;54.284;10.158;2023-02-15T07:10:55;0.20;99.90
5675;DHT22;2860;54.284;10.158;2023-02-15T07:13:41;0.20;99.90
5675;DHT22;2860;54.284;10.158;2023-02-15T07:16:08;0.20;99.90
5675;DHT22;2860;54.284;10.158;2023-02-15T07:18:34;0.20;99.90
5675;DHT22;2860;54.284;10.158;2023-02-15T07:20:59;0.20;99.90
5675;DHT22;2860;54.284;10.158;2023-02-15T07:23:25;0.30;99.90
5675;DHT22;2860;54.284;10.158;2023-02-15T07:25:59;0.30;99.90
5675;DHT22;2860;54.284;10.158;2023-02-15T07:28:25;0.30;99.90
5675;DHT22;2860;54.284;10.158;2023-02-15T07:30:51;0.30;99.90
5675;DHT22;2860;54.284;10.158;2023-02-15T07:33:17;0.30;99.90
5675;DHT22;2860;54.284;10.158;2023-02-15T07:35:55;0.40;99.90
5675;DHT22;2860;54.284;10.158;2023-02-15T07:38:23;0.40;99.90
5675;DHT22;2860;54.284;10.158;2023-02-15T07:40:49;0.40;99.90
5675;DHT22;2860;54.284;10.158;2023-02-15T07:43:15;0.40;99.90
5675;DHT22;2860;54.284;10.158;2023-02-15T07:45:40;0.50;99.90
5675;DHT22;2860;54.284;10.158;2023-02-15T07:48:06;0.50;99.90
5675;DHT22;2860;54.284;10.158;2023-02-15T07:50:33;0.60;99.90
5675;DHT22;2860;54.284;10.158;2023-02-15T07:53:01;0.60;99.90
5675;DHT22;2860;54.284;10.158;2023-02-15T07:55:26;0.60;99.90
5675;DHT22;2860;54.284;10.158;2023-02-15T07:57:52;0.70;99.90
5675;DHT22;2860;54.284;10.158;2023-02-15T08:00:20;0.70;99.90
5675;DHT22;2860;54.284;10.158;2023-02-15T08:02:51;0.70;99.90
5675;DHT22;2860;54.284;10.158;2023-02-15T08:05:37;0.70;99.90
5675;DHT22;2860;54.284;10.158;2023-02-15T08:08:03;0.70;99.90
5675;DHT22;2860;54.284;10.158;2023-02-15T08:10:29;0.70;99.90
5675;DHT22;2860;54.284;10.158;2023-02-15T08:13:13;0.80;99.90
5675;DHT22;2860;54.284;10.158;2023-02-15T08:15:39;0.80;99.90
5675;DHT22;2860;54.284;10.158;2023-02-15T08:18:04;0.80;99.90
5675;DHT22;2860;54.284;10.158;2023-02-15T08:20:31;0.80;99.90
5675;DHT22;2860;54.284;10.158;2023-02-15T08:22:59;0.90;99.90
5675;DHT22;2860;54.284;10.158;2023-02-15T08:25:25;0.90;99.90
5675;DHT22;2860;54.284;10.158;2023-02-15T08:27:50;0.90;99.90
5675;DHT22;2860;54.284;10.158;2023-02-15T08:30:16;0.90;99.90
5675;DHT22;2860;54.284;10.158;2023-02-15T08:32:41;1.00;99.90
5675;DHT22;2860;54.284;10.158;2023-02-15T08:35:09;1.10;99.90
5675;DHT22;2860;54.284;10.158;2023-02-15T08:37:35;1.20;99.90
5675;DHT22;2860;54.284;10.158;2023-02-15T08:40:00;1.30;99.90
5675;DHT22;2860;54.284;10.158;2023-02-15T08:42:27;1.40;99.90
5675;DHT22;2860;54.284;10.158;2023-02-15T08:44:53;1.50;99.90
5675;DHT22;2860;54.284;10.158;2023-02-15T08:47:18;1.60;99.90
5675;DHT22;2860;54.284;10.158;2023-02-15T08:49:44;1.60;99.90
5675;DHT22;2860;54.284;10.158;2023-02-15T08:52:09;1.60;99.90
5675;DHT22;2860;54.284;10.158;2023-02-15T08:54:35;1.70;99.90
5675;DHT22;2860;54.284;10.158;2023-02-15T08:57:00;1.70;99.90
5675;DHT22;2860;54.284;10.158;2023-02-15T08:59:26;1.80;99.90
5675;DHT22;2860;54.284;10.158;2023-02-15T09:01:53;1.90;99.90
5675;DHT22;2860;54.284;10.158;2023-02-15T09:04:19;1.80;99.90
5675;DHT22;2860;54.284;10.158;2023-02-15T09:06:46;1.90;99.90
5675;DHT22;2860;54.284;10.158;2023-02-15T09:09:12;2.00;99.90
5675;DHT22;2860;54.284;10.158;2023-02-15T09:11:43;2.10;99.90
5675;DHT22;2860;54.284;10.158;2023-02-15T09:14:17;2.20;99.90
5675;DHT22;2860;54.284;10.158;2023-02-15T09:16:44;2.30;99.90
5675;DHT22;2860;54.284;10.158;2023-02-15T09:19:11;2.40;99.90
5675;DHT22;2860;54.284;10.158;2023-02-15T09:21:37;2.40;99.90
5675;DHT22;2860;54.284;10.158;2023-02-15T09:24:07;2.50;99.90
5675;DHT22;2860;54.284;10.158;2023-02-15T09:26:36;2.40;99.90
5675;DHT22;2860;54.284;10.158;2023-02-15T09:29:02;2.30;99.90
5675;DHT22;2860;54.284;10.158;2023-02-15T09:31:31;2.40;99.90
5675;DHT22;2860;54.284;10.158;2023-02-15T09:33:58;2.40;99.90
5675;DHT22;2860;54.284;10.158;2023-02-15T09:36:35;2.40;99.90
5675;DHT22;2860;54.284;10.158;2023-02-15T09:39:06;2.40;99.90
5675;DHT22;2860;54.284;10.158;2023-02-15T09:42:18;2.50;99.90
5675;DHT22;2860;54.284;10.158;2023-02-15T09:50:23;2.60;99.90
5675;DHT22;2860;54.284;10.158;2023-02-15T10:03:29;2.80;99.90
5675;DHT22;2860;54.284;10.158;2023-02-15T10:08:41;3.00;99.90
5675;DHT22;2860;54.284;10.158;2023-02-15T10:11:16;3.10;99.90
5675;DHT22;2860;54.284;10.158;2023-02-15T10:25:28;3.40;99.90
5675;DHT22;2860;54.284;10.158;2023-02-15T10:28:23;3.40;99.90
5675;DHT22;2860;54.284;10.158;2023-02-15T10:33:51;3.40;99.90
5675;DHT22;2860;54.284;10.158;2023-02-15T10:36:42;3.60;99.90
5675;DHT22;2860;54.284;10.158;2023-02-15T10:42:06;3.90;99.90
5675;DHT22;2860;54.284;10.158;2023-02-15T11:01:05;4.30;99.90
5675;DHT22;2860;54.284;10.158;2023-02-15T11:06:07;4.60;99.90
5675;DHT22;2860;54.284;10.158;2023-02-15T11:08:45;4.70;99.90
5675;DHT22;2860;54.284;10.158;2023-02-15T11:11:23;4.70;99.90
5675;DHT22;2860;54.284;10.158;2023-02-15T11:13:55;4.80;99.90
5675;DHT22;2860;54.284;10.158;2023-02-15T11:16:27;4.90;99.90
5675;DHT22;2860;54.284;10.158;2023-02-15T11:18:59;4.90;99.90
5675;DHT22;2860;54.284;10.158;2023-02-15T11:21:33;5.00;99.90
5675;DHT22;2860;54.284;10.158;2023-02-15T11:24:14;5.00;99.90
5675;DHT22;2860;54.284;10.158;2023-02-15T11:26:44;5.10;99.90
5675;DHT22;2860;54.284;10.158;2023-02-15T11:29:23;5.10;99.90
5675;DHT22;2860;54.284;10.158;2023-02-15T11:31:56;5.10;99.90
5675;DHT22;2860;54.284;10.158;2023-02-15T11:34:38;5.20;99.90
5675;DHT22;2860;54.284;10.158;2023-02-15T11:37:09;5.20;99.90
5675;DHT22;2860;54.284;10.158;2023-02-15T11:39:35;5.10;99.90
5675;DHT22;2860;54.284;10.158;2023-02-15T11:42:14;5.20;99.90
5675;DHT22;2860;54.284;10.158;2023-02-15T11:47:28;5.20;99.90
5675;DHT22;2860;54.284;10.158;2023-02-15T11:49:54;5.30;99.90
5675;DHT22;2860;54.284;10.158;2023-02-15T11:52:19;5.30;99.90
5675;DHT22;2860;54.284;10.158;2023-02-15T11:54:50;5.30;99.90
5675;DHT22;2860;54.284;10.158;2023-02-15T12:00:46;5.30;99.90
5675;DHT22;2860;54.284;10.158;2023-02-15T12:02:53;5.30;99.90
5675;DHT22;2860;54.284;10.158;2023-02-15T12:05:21;5.30;99.90
5675;DHT22;2860;54.284;10.158;2023-02-15T12:08:00;5.30;99.90
5675;DHT22;2860;54.284;10.158;2023-02-15T12:10:33;5.30;99.90
5675;DHT22;2860;54.284;10.158;2023-02-15T12:13:16;5.40;99.90
5675;DHT22;2860;54.284;10.158;2023-02-15T12:15:45;5.50;99.90
5675;DHT22;2860;54.284;10.158;2023-02-15T12:21:01;5.50;99.90
5675;DHT22;2860;54.284;10.158;2023-02-15T12:23:28;5.50;99.90
5675;DHT22;2860;54.284;10.158;2023-02-15T12:25:56;5.60;99.90
5675;DHT22;2860;54.284;10.158;2023-02-15T12:28:26;5.60;99.90
5675;DHT22;2860;54.284;10.158;2023-02-15T12:30:56;5.70;99.90
5675;DHT22;2860;54.284;10.158;2023-02-15T12:33:30;5.70;99.90
5675;DHT22;2860;54.284;10.158;2023-02-15T12:35:59;5.70;99.90
5675;DHT22;2860;54.284;10.158;2023-02-15T12:38:26;5.80;99.90
5675;DHT22;2860;54.284;10.158;2023-02-15T12:41:05;5.80;99.90
5675;DHT22;2860;54.284;10.158;2023-02-15T12:43:37;5.80;99.90
5675;DHT22;2860;54.284;10.158;2023-02-15T12:46:23;6.00;99.90
5675;DHT22;2860;54.284;10.158;2023-02-15T12:54:40;5.70;99.90
5675;DHT22;2860;54.284;10.158;2023-02-15T12:57:29;5.70;99.90
5675;DHT22;2860;54.284;10.158;2023-02-15T13:02:51;5.50;99.90
5675;DHT22;2860;54.284;10.158;2023-02-15T13:07:58;5.60;99.90
5675;DHT22;2860;54.284;10.158;2023-02-15T13:10:29;5.70;99.90
5675;DHT22;2860;54.284;10.158;2023-02-15T13:12:56;5.80;99.90
5675;DHT22;2860;54.284;10.158;2023-02-15T13:15:35;5.90;99.90
5675;DHT22;2860;54.284;10.158;2023-02-15T13:18:02;5.90;99.90
5675;DHT22;2860;54.284;10.158;2023-02-15T13:20:29;5.80;99.90
5675;DHT22;2860;54.284;10.158;2023-02-15T13:23:03;5.70;99.90
5675;DHT22;2860;54.284;10.158;2023-02-15T13:25:37;5.80;99.90
5675;DHT22;2860;54.284;10.158;2023-02-15T13:28:06;5.90;99.90
5675;DHT22;2860;54.284;10.158;2023-02-15T13:30:40;6.00;99.90
5675;DHT22;2860;54.284;10.158;2023-02-15T13:33:22;6.00;99.90
5675;DHT22;2860;54.284;10.158;2023-02-15T13:36:01;6.00;99.90
5675;DHT22;2860;54.284;10.158;2023-02-15T13:41:40;5.90;99.90
5675;DHT22;2860;54.284;10.158;2023-02-15T13:49:50;5.90;99.90
5675;DHT22;2860;54.284;10.158;2023-02-15T13:52:21;5.90;99.90
5675;DHT22;2860;54.284;10.158;2023-02-15T13:54:53;6.00;99.90
5675;DHT22;2860;54.284;10.158;2023-02-15T14:08:20;5.90;99.90
5675;DHT22;2860;54.284;10.158;2023-02-15T14:16:33;6.00;99.90
5675;DHT22;2860;54.284;10.158;2023-02-15T14:19:29;6.00;99.90
5675;DHT22;2860;54.284;10.158;2023-02-15T14:22:12;6.00;99.90
5675;DHT22;2860;54.284;10.158;2023-02-15T14:24:52;6.00;99.90
5675;DHT22;2860;54.284;10.158;2023-02-15T14:27:27;6.00;99.90
5675;DHT22;2860;54.284;10.158;2023-02-15T14:30:02;6.00;99.90
5675;DHT22;2860;54.284;10.158;2023-02-15T14:32:33;6.00;99.90
5675;DHT22;2860;54.284;10.158;2023-02-15T14:35:03;5.90;99.90
5675;DHT22;2860;54.284;10.158;2023-02-15T14:46:22;5.90;99.90
5675;DHT22;2860;54.284;10.158;2023-02-15T14:48:51;5.80;99.90
5675;DHT22;2860;54.284;10.158;2023-02-15T14:54:07;5.70;99.90
5675;DHT22;2860;54.284;10.158;2023-02-15T14:56:32;5.70;99.90
5675;DHT22;2860;54.284;10.158;2023-02-15T14:59:01;5.70;99.90
5675;DHT22;2860;54.284;10.158;2023-02-15T15:01:36;5.70;99.90
5675;DHT22;2860;54.284;10.158;2023-02-15T15:04:12;5.70;99.90
5675;DHT22;2860;54.284;10.158;2023-02-15T15:06:42;5.70;99.90
5675;DHT22;2860;54.284;10.158;2023-02-15T15:11:42;5.50;99.90
5675;DHT22;2860;54.284;10.158;2023-02-15T15:14:09;5.50;99.90
5675;DHT22;2860;54.284;10.158;2023-02-15T15:19:04;5.40;99.90
5675;DHT22;2860;54.284;10.158;2023-02-15T15:33:01;5.40;99.90
5675;DHT22;2860;54.284;10.158;2023-02-15T15:42:00;5.30;99.90
5675;DHT22;2860;54.284;10.158;2023-02-15T15:50:13;5.20;99.90
5675;DHT22;2860;54.284;10.158;2023-02-15T15:52:51;5.20;99.90
5675;DHT22;2860;54.284;10.158;2023-02-15T15:55:24;5.20;99.90
5675;DHT22;2860;54.284;10.158;2023-02-15T15:57:53;5.20;99.90
5675;DHT22;2860;54.284;10.158;2023-02-15T16:02:58;5.10;99.90
5675;DHT22;2860;54.284;10.158;2023-02-15T16:05:23;5.00;99.90
5675;DHT22;2860;54.284;10.158;2023-02-15T16:07:49;5.10;99.90
5675;DHT22;2860;54.284;10.158;2023-02-15T16:10:28;5.00;99.90
5675;DHT22;2860;54.284;10.158;2023-02-15T16:12:57;5.00;99.90
5675;DHT22;2860;54.284;10.158;2023-02-15T16:15:58;5.00;99.90
5675;DHT22;2860;54.284;10.158;2023-02-15T16:18:26;5.00;99.90
5675;DHT22;2860;54.284;10.158;2023-02-15T16:21:00;5.00;99.90
5675;DHT22;2860;54.284;10.158;2023-02-15T16:29:30;4.90;99.90
5675;DHT22;2860;54.284;10.158;2023-02-15T16:32:01;4.90;99.90
5675;DHT22;2860;54.284;10.158;2023-02-15T16:34:27;4.90;99.90
5675;DHT22;2860;54.284;10.158;2023-02-15T16:37:15;4.80;99.90
5675;DHT22;2860;54.284;10.158;2023-02-15T16:39:42;4.80;99.90
5675;DHT22;2860;54.284;10.158;2023-02-15T16:42:08;4.80;99.90
5675;DHT22;2860;54.284;10.158;2023-02-15T16:44:34;4.80;99.90
5675;DHT22;2860;54.284;10.158;2023-02-15T16:47:00;4.80;99.90
5675;DHT22;2860;54.284;10.158;2023-02-15T16:49:28;4.70;99.90
5675;DHT22;2860;54.284;10.158;2023-02-15T16:52:04;4.70;99.90
5675;DHT22;2860;54.284;10.158;2023-02-15T16:54:32;4.70;99.90
5675;DHT22;2860;54.284;10.158;2023-02-15T16:56:59;4.60;99.90
5675;DHT22;2860;54.284;10.158;2023-02-15T17:01:59;4.50;99.90
5675;DHT22;2860;54.284;10.158;2023-02-15T17:04:30;4.50;99.90
5675;DHT22;2860;54.284;10.158;2023-02-15T17:07:15;4.50;99.90
5675;DHT22;2860;54.284;10.158;2023-02-15T17:09:52;4.50;99.90
5675;DHT22;2860;54.284;10.158;2023-02-15T17:17:52;4.40;99.90
5675;DHT22;2860;54.284;10.158;2023-02-15T17:20:20;4.50;99.90
5675;DHT22;2860;54.284;10.158;2023-02-15T17:22:46;4.50;99.90
5675;DHT22;2860;54.284;10.158;2023-02-15T17:25:20;4.50;99.90
5675;DHT22;2860;54.284;10.158;2023-02-15T17:27:51;4.40;99.90
5675;DHT22;2860;54.284;10.158;2023-02-15T17:30:26;4.40;99.90
5675;DHT22;2860;54.284;10.158;2023-02-15T17:33:01;4.40;99.90
5675;DHT22;2860;54.284;10.158;2023-02-15T17:35:36;4.40;99.90
5675;DHT22;2860;54.284;10.158;2023-02-15T17:38:17;4.40;99.90
5675;DHT22;2860;54.284;10.158;2023-02-15T17:40:43;4.40;99.90
5675;DHT22;2860;54.284;10.158;2023-02-15T17:43:08;4.40;99.90
5675;DHT22;2860;54.284;10.158;2023-02-15T17:45:37;4.40;99.90
5675;DHT22;2860;54.284;10.158;2023-02-15T17:48:05;4.30;99.90
5675;DHT22;2860;54.284;10.158;2023-02-15T17:50:32;4.30;99.90
5675;DHT22;2860;54.284;10.158;2023-02-15T17:52:59;4.30;99.90
5675;DHT22;2860;54.284;10.158;2023-02-15T17:55:26;4.20;99.90
5675;DHT22;2860;54.284;10.158;2023-02-15T17:58:11;4.20;99.90
5675;DHT22;2860;54.284;10.158;2023-02-15T18:00:49;4.20;99.90
5675;DHT22;2860;54.284;10.158;2023-02-15T18:03:40;4.30;99.90
5675;DHT22;2860;54.284;10.158;2023-02-15T18:06:25;4.30;99.90
5675;DHT22;2860;54.284;10.158;2023-02-15T18:09:11;4.20;99.90
5675;DHT22;2860;54.284;10.158;2023-02-15T18:11:56;4.20;99.90
5675;DHT22;2860;54.284;10.158;2023-02-15T18:14:21;4.20;99.90
5675;DHT22;2860;54.284;10.158;2023-02-15T18:16:47;4.20;99.90
5675;DHT22;2860;54.284;10.158;2023-02-15T18:19:17;4.20;99.90
5675;DHT22;2860;54.284;10.158;2023-02-15T18:21:44;4.20;99.90
5675;DHT22;2860;54.284;10.158;2023-02-15T18:24:21;4.20;99.90
5675;DHT22;2860;54.284;10.158;2023-02-15T18:26:49;4.20;99.90
5675;DHT22;2860;54.284;10.158;2023-02-15T18:29:14;4.20;99.90
5675;DHT22;2860;54.284;10.158;2023-02-15T18:31:41;4.20;99.90
5675;DHT22;2860;54.284;10.158;2023-02-15T18:34:21;4.20;99.90
5675;DHT22;2860;54.284;10.158;2023-02-15T18:36:48;4.20;99.90
5675;DHT22;2860;54.284;10.158;2023-02-15T18:39:26;4.20;99.90
5675;DHT22;2860;54.284;10.158;2023-02-15T18:41:52;4.10;99.90
5675;DHT22;2860;54.284;10.158;2023-02-15T18:44:18;4.10;99.90
5675;DHT22;2860;54.284;10.158;2023-02-15T18:46:44;4.10;99.90
5675;DHT22;2860;54.284;10.158;2023-02-15T18:49:09;4.10;99.90
5675;DHT22;2860;54.284;10.158;2023-02-15T18:51:35;4.10;99.90
5675;DHT22;2860;54.284;10.158;2023-02-15T18:54:05;4.00;99.90
5675;DHT22;2860;54.284;10.158;2023-02-15T18:56:31;4.00;99.90
5675;DHT22;2860;54.284;10.158;2023-02-15T18:58:57;4.00;99.90
5675;DHT22;2860;54.284;10.158;2023-02-15T19:01:22;3.90;99.90
5675;DHT22;2860;54.284;10.158;2023-02-15T19:03:49;3.90;99.90
5675;DHT22;2860;54.284;10.158;2023-02-15T19:06:20;3.90;99.90
5675;DHT22;2860;54.284;10.158;2023-02-15T19:08:48;3.90;99.90
5675;DHT22;2860;54.284;10.158;2023-02-15T19:11:17;3.90;99.90
5675;DHT22;2860;54.284;10.158;2023-02-15T19:13:44;3.80;99.90
5675;DHT22;2860;54.284;10.158;2023-02-15T19:16:30;3.80;99.90
5675;DHT22;2860;54.284;10.158;2023-02-15T19:18:56;3.80;99.90